sensor_id;sensor_type;location;lat;lon;timestamp;P1;durP1;ratioP1;P2;durP2;ratioP2
67941;SDS011;54731;42.600;23.476;2023-02-28T00:00:23;20.98;;;11.63;;
67941;SDS011;54731;42.600;23.476;2023-02-28T00:02:48;22.30;;;12.33;;
67941;SDS011;54731;42.600;23.476;2023-02-28T00:05:15;22.33;;;13.13;;
67941;SDS011;54731;42.600;23.476;2023-02-28T00:07:42;25.77;;;13.53;;
67941;SDS011;54731;42.600;23.476;2023-02-28T00:10:09;22.45;;;12.55;;
67941;SDS011;54731;42.600;23.476;2023-02-28T00:12:36;25.87;;;13.97;;
67941;SDS011;54731;42.600;23.476;2023-02-28T00:15:04;29.90;;;14.15;;
67941;SDS011;54731;42.600;23.476;2023-02-28T00:17:31;29.98;;;15.48;;
67941;SDS011;54731;42.600;23.476;2023-02-28T00:19:57;29.20;;;14.83;;
67941;SDS011;54731;42.600;23.476;2023-02-28T00:22:22;28.17;;;14.27;;
67941;SDS011;54731;42.600;23.476;2023-02-28T00:24:47;27.97;;;14.27;;
67941;SDS011;54731;42.600;23.476;2023-02-28T00:27:13;29.70;;;14.20;;
67941;SDS011;54731;42.600;23.476;2023-02-28T00:29:39;30.88;;;14.90;;
67941;SDS011;54731;42.600;23.476;2023-02-28T00:32:04;25.57;;;14.70;;
67941;SDS011;54731;42.600;23.476;2023-02-28T00:34:30;26.95;;;15.02;;
67941;SDS011;54731;42.600;23.476;2023-02-28T00:36:56;28.57;;;15.43;;
67941;SDS011;54731;42.600;23.476;2023-02-28T00:39:21;33.23;;;15.97;;
67941;SDS011;54731;42.600;23.476;2023-02-28T00:41:47;27.63;;;13.80;;
67941;SDS011;54731;42.600;23.476;2023-02-28T00:44:12;37.87;;;20.70;;
67941;SDS011;54731;42.600;23.476;2023-02-28T00:46:37;44.10;;;22.67;;
67941;SDS011;54731;42.600;23.476;2023-02-28T00:49:02;39.20;;;20.00;;
67941;SDS011;54731;42.600;23.476;2023-02-28T00:51:28;35.83;;;19.20;;
67941;SDS011;54731;42.600;23.476;2023-02-28T00:53:53;35.03;;;17.53;;
67941;SDS011;54731;42.600;23.476;2023-02-28T00:56:18;33.87;;;17.50;;
67941;SDS011;54731;42.600;23.476;2023-02-28T00:58:44;31.47;;;15.60;;
67941;SDS011;54731;42.600;23.476;2023-02-28T01:01:09;26.83;;;15.03;;
67941;SDS011;54731;42.600;23.476;2023-02-28T01:03:34;26.67;;;14.93;;
67941;SDS011;54731;42.600;23.476;2023-02-28T01:06:00;23.77;;;13.23;;
67941;SDS011;54731;42.600;23.476;2023-02-28T01:08:25;34.13;;;15.35;;
67941;SDS011;54731;42.600;23.476;2023-02-28T01:10:51;22.48;;;12.35;;
67941;SDS011;54731;42.600;23.476;2023-02-28T01:13:17;21.42;;;9.07;;
67941;SDS011;54731;42.600;23.476;2023-02-28T01:15:45;25.00;;;11.25;;
67941;SDS011;54731;42.600;23.476;2023-02-28T01:18:15;20.65;;;10.57;;
67941;SDS011;54731;42.600;23.476;2023-02-28T01:20:40;21.58;;;10.90;;
67941;SDS011;54731;42.600;23.476;2023-02-28T01:23:06;17.73;;;10.07;;
67941;SDS011;54731;42.600;23.476;2023-02-28T01:25:33;22.10;;;10.03;;
67941;SDS011;54731;42.600;23.476;2023-02-28T01:27:59;20.05;;;11.73;;
67941;SDS011;54731;42.600;23.476;2023-02-28T01:30:25;24.00;;;12.67;;
67941;SDS011;54731;42.600;23.476;2023-02-28T01:32:50;33.80;;;15.43;;
67941;SDS011;54731;42.600;23.476;2023-02-28T01:35:15;36.20;;;13.50;;
67941;SDS011;54731;42.600;23.476;2023-02-28T01:37:41;18.67;;;7.40;;
67941;SDS011;54731;42.600;23.476;2023-02-28T01:40:06;11.10;;;5.60;;
67941;SDS011;54731;42.600;23.476;2023-02-28T01:42:32;10.82;;;5.00;;
67941;SDS011;54731;42.600;23.476;2023-02-28T01:47:39;13.90;;;5.78;;
67941;SDS011;54731;42.600;23.476;2023-02-28T01:50:09;11.15;;;6.30;;
67941;SDS011;54731;42.600;23.476;2023-02-28T01:52:41;12.98;;;6.15;;
67941;SDS011;54731;42.600;23.476;2023-02-28T01:55:08;15.10;;;5.65;;
67941;SDS011;54731;42.600;23.476;2023-02-28T01:57:37;31.33;;;13.40;;
67941;SDS011;54731;42.600;23.476;2023-02-28T02:00:07;74.85;;;31.33;;
67941;SDS011;54731;42.600;23.476;2023-02-28T02:02:38;35.95;;;15.27;;
67941;SDS011;54731;42.600;23.476;2023-02-28T02:05:05;18.67;;;8.77;;
67941;SDS011;54731;42.600;23.476;2023-02-28T02:07:37;10.40;;;4.22;;
67941;SDS011;54731;42.600;23.476;2023-02-28T02:10:06;6.50;;;3.42;;
67941;SDS011;54731;42.600;23.476;2023-02-28T02:15:16;7.93;;;4.10;;
67941;SDS011;54731;42.600;23.476;2023-02-28T02:17:50;17.85;;;9.13;;
67941;SDS011;54731;42.600;23.476;2023-02-28T02:20:32;17.65;;;8.75;;
67941;SDS011;54731;42.600;23.476;2023-02-28T02:29:07;21.20;;;9.02;;
67941;SDS011;54731;42.600;23.476;2023-02-28T02:34:56;5.90;;;2.30;;
67941;SDS011;54731;42.600;23.476;2023-02-28T02:40:23;7.70;;;3.95;;
67941;SDS011;54731;42.600;23.476;2023-02-28T02:42:55;7.75;;;3.95;;
67941;SDS011;54731;42.600;23.476;2023-02-28T02:45:37;10.77;;;3.67;;
67941;SDS011;54731;42.600;23.476;2023-02-28T02:48:09;9.55;;;2.22;;
67941;SDS011;54731;42.600;23.476;2023-02-28T02:50:38;11.68;;;5.05;;
67941;SDS011;54731;42.600;23.476;2023-02-28T02:53:05;25.33;;;12.38;;
67941;SDS011;54731;42.600;23.476;2023-02-28T02:55:34;37.05;;;14.13;;
67941;SDS011;54731;42.600;23.476;2023-02-28T02:58:04;31.13;;;13.88;;
67941;SDS011;54731;42.600;23.476;2023-02-28T03:00:34;37.67;;;13.80;;
67941;SDS011;54731;42.600;23.476;2023-02-28T03:03:05;39.35;;;13.15;;
67941;SDS011;54731;42.600;23.476;2023-02-28T03:05:42;89.07;;;14.52;;
67941;SDS011;54731;42.600;23.476;2023-02-28T03:08:11;138.82;;;16.02;;
67941;SDS011;54731;42.600;23.476;2023-02-28T03:10:38;56.13;;;15.03;;
67941;SDS011;54731;42.600;23.476;2023-02-28T03:13:21;28.20;;;12.30;;
67941;SDS011;54731;42.600;23.476;2023-02-28T03:24:43;38.55;;;10.13;;
67941;SDS011;54731;42.600;23.476;2023-02-28T03:30:16;78.90;;;10.05;;
67941;SDS011;54731;42.600;23.476;2023-02-28T03:32:50;55.50;;;9.67;;
67941;SDS011;54731;42.600;23.476;2023-02-28T03:35:24;23.13;;;10.95;;
67941;SDS011;54731;42.600;23.476;2023-02-28T03:37:53;16.13;;;8.23;;
67941;SDS011;54731;42.600;23.476;2023-02-28T03:40:26;12.00;;;6.38;;
67941;SDS011;54731;42.600;23.476;2023-02-28T03:42:56;32.00;;;9.52;;
67941;SDS011;54731;42.600;23.476;2023-02-28T03:45:29;41.97;;;12.80;;
67941;SDS011;54731;42.600;23.476;2023-02-28T03:50:29;26.77;;;10.88;;
67941;SDS011;54731;42.600;23.476;2023-02-28T03:53:46;23.08;;;10.52;;
67941;SDS011;54731;42.600;23.476;2023-02-28T03:55:52;11.80;;;5.55;;
67941;SDS011;54731;42.600;23.476;2023-02-28T03:58:27;34.13;;;14.00;;
67941;SDS011;54731;42.600;23.476;2023-02-28T04:01:04;27.38;;;13.88;;
67941;SDS011;54731;42.600;23.476;2023-02-28T04:03:36;79.22;;;32.45;;
67941;SDS011;54731;42.600;23.476;2023-02-28T04:06:03;40.50;;;23.63;;
67941;SDS011;54731;42.600;23.476;2023-02-28T04:08:30;37.08;;;17.63;;
67941;SDS011;54731;42.600;23.476;2023-02-28T04:11:06;40.43;;;20.13;;
67941;SDS011;54731;42.600;23.476;2023-02-28T04:13:57;28.20;;;13.15;;
67941;SDS011;54731;42.600;23.476;2023-02-28T04:16:22;17.87;;;9.70;;
67941;SDS011;54731;42.600;23.476;2023-02-28T04:18:47;22.40;;;9.30;;
67941;SDS011;54731;42.600;23.476;2023-02-28T04:21:13;102.07;;;14.80;;
67941;SDS011;54731;42.600;23.476;2023-02-28T04:23:38;56.67;;;14.93;;
67941;SDS011;54731;42.600;23.476;2023-02-28T04:26:03;43.60;;;17.43;;
67941;SDS011;54731;42.600;23.476;2023-02-28T04:28:29;36.40;;;15.23;;
67941;SDS011;54731;42.600;23.476;2023-02-28T04:31:02;26.57;;;11.33;;
67941;SDS011;54731;42.600;23.476;2023-02-28T04:33:28;24.85;;;10.55;;
67941;SDS011;54731;42.600;23.476;2023-02-28T04:36:03;15.02;;;7.38;;
67941;SDS011;54731;42.600;23.476;2023-02-28T04:38:33;12.35;;;5.65;;
67941;SDS011;54731;42.600;23.476;2023-02-28T04:41:02;12.02;;;6.22;;
67941;SDS011;54731;42.600;23.476;2023-02-28T04:43:28;13.52;;;6.72;;
67941;SDS011;54731;42.600;23.476;2023-02-28T04:45:54;15.88;;;8.98;;
67941;SDS011;54731;42.600;23.476;2023-02-28T04:48:20;56.47;;;27.23;;
67941;SDS011;54731;42.600;23.476;2023-02-28T04:50:45;25.80;;;11.67;;
67941;SDS011;54731;42.600;23.476;2023-02-28T04:53:10;13.68;;;7.95;;
67941;SDS011;54731;42.600;23.476;2023-02-28T04:55:36;13.77;;;6.27;;
67941;SDS011;54731;42.600;23.476;2023-02-28T04:58:01;14.73;;;7.30;;
67941;SDS011;54731;42.600;23.476;2023-02-28T05:00:26;16.10;;;7.27;;
67941;SDS011;54731;42.600;23.476;2023-02-28T05:02:52;16.63;;;8.10;;
67941;SDS011;54731;42.600;23.476;2023-02-28T05:05:17;16.43;;;5.70;;
67941;SDS011;54731;42.600;23.476;2023-02-28T05:07:42;12.07;;;5.60;;
67941;SDS011;54731;42.600;23.476;2023-02-28T05:10:08;10.43;;;4.40;;
67941;SDS011;54731;42.600;23.476;2023-02-28T05:12:34;8.77;;;5.07;;
67941;SDS011;54731;42.600;23.476;2023-02-28T05:14:59;8.63;;;4.30;;
67941;SDS011;54731;42.600;23.476;2023-02-28T05:17:25;13.23;;;5.15;;
67941;SDS011;54731;42.600;23.476;2023-02-28T05:19:50;12.25;;;5.57;;
67941;SDS011;54731;42.600;23.476;2023-02-28T05:22:15;9.57;;;5.40;;
67941;SDS011;54731;42.600;23.476;2023-02-28T05:24:41;15.00;;;6.63;;
67941;SDS011;54731;42.600;23.476;2023-02-28T05:27:07;15.60;;;6.40;;
67941;SDS011;54731;42.600;23.476;2023-02-28T05:29:32;14.05;;;7.10;;
67941;SDS011;54731;42.600;23.476;2023-02-28T05:31:58;18.93;;;9.50;;
67941;SDS011;54731;42.600;23.476;2023-02-28T05:34:23;17.13;;;9.57;;
67941;SDS011;54731;42.600;23.476;2023-02-28T05:36:48;17.80;;;9.53;;
67941;SDS011;54731;42.600;23.476;2023-02-28T05:39:14;70.13;;;24.20;;
67941;SDS011;54731;42.600;23.476;2023-02-28T05:41:42;123.17;;;24.23;;
67941;SDS011;54731;42.600;23.476;2023-02-28T05:44:08;112.70;;;19.35;;
67941;SDS011;54731;42.600;23.476;2023-02-28T05:46:33;189.68;;;21.92;;
67941;SDS011;54731;42.600;23.476;2023-02-28T05:48:59;75.63;;;15.27;;
67941;SDS011;54731;42.600;23.476;2023-02-28T05:51:24;46.10;;;15.37;;
67941;SDS011;54731;42.600;23.476;2023-02-28T05:53:49;33.40;;;15.47;;
67941;SDS011;54731;42.600;23.476;2023-02-28T05:56:15;42.10;;;18.47;;
67941;SDS011;54731;42.600;23.476;2023-02-28T05:58:40;43.55;;;20.88;;
67941;SDS011;54731;42.600;23.476;2023-02-28T06:04:00;48.80;;;23.42;;
67941;SDS011;54731;42.600;23.476;2023-02-28T06:06:26;42.40;;;20.23;;
67941;SDS011;54731;42.600;23.476;2023-02-28T06:08:52;41.25;;;20.73;;
67941;SDS011;54731;42.600;23.476;2023-02-28T06:11:17;40.87;;;21.67;;
67941;SDS011;54731;42.600;23.476;2023-02-28T06:13:42;42.83;;;20.50;;
67941;SDS011;54731;42.600;23.476;2023-02-28T06:16:09;47.63;;;22.63;;
67941;SDS011;54731;42.600;23.476;2023-02-28T06:18:36;38.67;;;20.20;;
67941;SDS011;54731;42.600;23.476;2023-02-28T06:21:01;40.73;;;20.33;;
67941;SDS011;54731;42.600;23.476;2023-02-28T06:23:26;38.03;;;18.83;;
67941;SDS011;54731;42.600;23.476;2023-02-28T06:25:52;62.47;;;23.92;;
67941;SDS011;54731;42.600;23.476;2023-02-28T06:28:17;52.30;;;22.80;;
67941;SDS011;54731;42.600;23.476;2023-02-28T06:30:42;68.13;;;27.03;;
67941;SDS011;54731;42.600;23.476;2023-02-28T06:33:08;67.47;;;26.43;;
67941;SDS011;54731;42.600;23.476;2023-02-28T06:35:33;65.33;;;28.30;;
67941;SDS011;54731;42.600;23.476;2023-02-28T06:37:58;101.70;;;35.73;;
67941;SDS011;54731;42.600;23.476;2023-02-28T06:40:23;134.10;;;43.67;;
67941;SDS011;54731;42.600;23.476;2023-02-28T06:42:49;140.27;;;48.83;;
67941;SDS011;54731;42.600;23.476;2023-02-28T06:45:14;138.23;;;48.63;;
67941;SDS011;54731;42.600;23.476;2023-02-28T06:47:40;114.23;;;42.33;;
67941;SDS011;54731;42.600;23.476;2023-02-28T06:50:06;91.40;;;34.67;;
67941;SDS011;54731;42.600;23.476;2023-02-28T06:52:33;64.30;;;25.77;;
67941;SDS011;54731;42.600;23.476;2023-02-28T06:54:59;68.93;;;27.10;;
67941;SDS011;54731;42.600;23.476;2023-02-28T06:57:24;65.63;;;24.13;;
67941;SDS011;54731;42.600;23.476;2023-02-28T06:59:49;45.90;;;22.27;;
67941;SDS011;54731;42.600;23.476;2023-02-28T07:02:15;49.83;;;22.40;;
67941;SDS011;54731;42.600;23.476;2023-02-28T07:04:40;49.17;;;23.60;;
67941;SDS011;54731;42.600;23.476;2023-02-28T07:07:05;47.88;;;23.17;;
67941;SDS011;54731;42.600;23.476;2023-02-28T07:09:30;44.50;;;21.20;;
67941;SDS011;54731;42.600;23.476;2023-02-28T07:11:56;40.60;;;19.70;;
67941;SDS011;54731;42.600;23.476;2023-02-28T07:14:21;35.67;;;18.33;;
67941;SDS011;54731;42.600;23.476;2023-02-28T07:16:46;39.60;;;19.47;;
67941;SDS011;54731;42.600;23.476;2023-02-28T07:19:11;42.93;;;18.60;;
67941;SDS011;54731;42.600;23.476;2023-02-28T07:21:37;38.67;;;19.43;;
67941;SDS011;54731;42.600;23.476;2023-02-28T07:24:02;39.23;;;21.13;;
67941;SDS011;54731;42.600;23.476;2023-02-28T07:26:27;49.03;;;21.60;;
67941;SDS011;54731;42.600;23.476;2023-02-28T07:28:53;55.83;;;25.85;;
67941;SDS011;54731;42.600;23.476;2023-02-28T07:31:18;86.80;;;39.27;;
67941;SDS011;54731;42.600;23.476;2023-02-28T07:33:44;57.60;;;28.30;;
67941;SDS011;54731;42.600;23.476;2023-02-28T07:36:10;65.90;;;30.13;;
67941;SDS011;54731;42.600;23.476;2023-02-28T07:38:39;80.18;;;29.42;;
67941;SDS011;54731;42.600;23.476;2023-02-28T07:41:04;75.63;;;27.33;;
67941;SDS011;54731;42.600;23.476;2023-02-28T07:43:30;69.47;;;27.63;;
67941;SDS011;54731;42.600;23.476;2023-02-28T07:46:01;62.13;;;30.42;;
67941;SDS011;54731;42.600;23.476;2023-02-28T07:48:30;73.05;;;32.50;;
67941;SDS011;54731;42.600;23.476;2023-02-28T07:50:56;71.93;;;32.77;;
67941;SDS011;54731;42.600;23.476;2023-02-28T07:53:22;51.95;;;25.02;;
67941;SDS011;54731;42.600;23.476;2023-02-28T07:55:47;41.13;;;17.30;;
67941;SDS011;54731;42.600;23.476;2023-02-28T07:58:13;24.77;;;12.07;;
67941;SDS011;54731;42.600;23.476;2023-02-28T08:00:38;25.60;;;10.90;;
67941;SDS011;54731;42.600;23.476;2023-02-28T08:03:03;27.45;;;11.02;;
67941;SDS011;54731;42.600;23.476;2023-02-28T08:05:29;18.92;;;9.07;;
67941;SDS011;54731;42.600;23.476;2023-02-28T08:07:54;25.27;;;11.10;;
67941;SDS011;54731;42.600;23.476;2023-02-28T08:10:19;19.73;;;9.87;;
67941;SDS011;54731;42.600;23.476;2023-02-28T08:12:44;20.53;;;9.87;;
67941;SDS011;54731;42.600;23.476;2023-02-28T08:15:10;29.70;;;13.53;;
67941;SDS011;54731;42.600;23.476;2023-02-28T08:17:35;26.77;;;10.70;;
67941;SDS011;54731;42.600;23.476;2023-02-28T08:20:00;36.33;;;11.37;;
67941;SDS011;54731;42.600;23.476;2023-02-28T08:22:26;25.50;;;10.13;;
67941;SDS011;54731;42.600;23.476;2023-02-28T08:24:51;20.93;;;10.53;;
67941;SDS011;54731;42.600;23.476;2023-02-28T08:27:16;31.85;;;13.68;;
67941;SDS011;54731;42.600;23.476;2023-02-28T08:29:42;28.85;;;12.43;;
67941;SDS011;54731;42.600;23.476;2023-02-28T08:32:07;23.57;;;9.20;;
67941;SDS011;54731;42.600;23.476;2023-02-28T08:34:32;23.73;;;11.03;;
67941;SDS011;54731;42.600;23.476;2023-02-28T08:36:58;23.40;;;11.60;;
67941;SDS011;54731;42.600;23.476;2023-02-28T08:39:23;32.50;;;15.00;;
67941;SDS011;54731;42.600;23.476;2023-02-28T08:41:48;35.87;;;15.27;;
67941;SDS011;54731;42.600;23.476;2023-02-28T08:44:14;27.50;;;14.70;;
67941;SDS011;54731;42.600;23.476;2023-02-28T08:46:39;41.17;;;19.50;;
67941;SDS011;54731;42.600;23.476;2023-02-28T08:49:04;27.60;;;13.10;;
67941;SDS011;54731;42.600;23.476;2023-02-28T08:51:30;26.33;;;10.00;;
67941;SDS011;54731;42.600;23.476;2023-02-28T08:53:58;31.50;;;11.73;;
67941;SDS011;54731;42.600;23.476;2023-02-28T08:56:25;29.10;;;12.32;;
67941;SDS011;54731;42.600;23.476;2023-02-28T08:58:51;22.95;;;11.15;;
67941;SDS011;54731;42.600;23.476;2023-02-28T09:01:20;27.83;;;11.37;;
67941;SDS011;54731;42.600;23.476;2023-02-28T09:03:48;32.75;;;15.57;;
67941;SDS011;54731;42.600;23.476;2023-02-28T09:06:15;29.42;;;11.32;;
67941;SDS011;54731;42.600;23.476;2023-02-28T09:08:41;25.30;;;10.73;;
67941;SDS011;54731;42.600;23.476;2023-02-28T09:11:06;20.85;;;8.98;;
67941;SDS011;54731;42.600;23.476;2023-02-28T09:13:32;23.27;;;9.90;;
67941;SDS011;54731;42.600;23.476;2023-02-28T09:15:59;24.23;;;9.43;;
67941;SDS011;54731;42.600;23.476;2023-02-28T09:18:25;30.67;;;11.45;;
67941;SDS011;54731;42.600;23.476;2023-02-28T09:20:52;28.58;;;10.35;;
67941;SDS011;54731;42.600;23.476;2023-02-28T09:23:17;32.53;;;12.90;;
67941;SDS011;54731;42.600;23.476;2023-02-28T09:25:49;33.35;;;13.80;;
67941;SDS011;54731;42.600;23.476;2023-02-28T09:28:16;295.07;;;128.77;;
67941;SDS011;54731;42.600;23.476;2023-02-28T09:30:46;40.53;;;18.30;;
67941;SDS011;54731;42.600;23.476;2023-02-28T09:33:14;31.33;;;13.32;;
67941;SDS011;54731;42.600;23.476;2023-02-28T09:35:40;50.50;;;29.33;;
67941;SDS011;54731;42.600;23.476;2023-02-28T09:38:06;28.53;;;13.30;;
67941;SDS011;54731;42.600;23.476;2023-02-28T09:40:31;30.08;;;10.75;;
67941;SDS011;54731;42.600;23.476;2023-02-28T09:43:01;31.00;;;12.52;;
67941;SDS011;54731;42.600;23.476;2023-02-28T09:45:32;31.10;;;13.45;;
67941;SDS011;54731;42.600;23.476;2023-02-28T09:48:28;25.77;;;10.98;;
67941;SDS011;54731;42.600;23.476;2023-02-28T09:51:04;20.42;;;10.25;;
67941;SDS011;54731;42.600;23.476;2023-02-28T09:53:40;23.20;;;10.70;;
67941;SDS011;54731;42.600;23.476;2023-02-28T09:56:10;21.53;;;9.50;;
67941;SDS011;54731;42.600;23.476;2023-02-28T10:06:44;28.92;;;9.70;;
67941;SDS011;54731;42.600;23.476;2023-02-28T10:09:15;26.33;;;9.35;;
67941;SDS011;54731;42.600;23.476;2023-02-28T10:11:44;21.95;;;11.63;;
67941;SDS011;54731;42.600;23.476;2023-02-28T10:19:29;30.85;;;12.63;;
67941;SDS011;54731;42.600;23.476;2023-02-28T10:22:15;27.40;;;11.15;;
67941;SDS011;54731;42.600;23.476;2023-02-28T10:24:46;25.35;;;10.25;;
67941;SDS011;54731;42.600;23.476;2023-02-28T10:29:53;19.50;;;8.98;;
67941;SDS011;54731;42.600;23.476;2023-02-28T10:32:24;116.40;;;52.58;;
67941;SDS011;54731;42.600;23.476;2023-02-28T10:37:39;68.45;;;38.45;;
67941;SDS011;54731;42.600;23.476;2023-02-28T10:40:06;29.52;;;11.68;;
67941;SDS011;54731;42.600;23.476;2023-02-28T10:42:56;24.58;;;12.98;;
67941;SDS011;54731;42.600;23.476;2023-02-28T10:45:24;28.42;;;13.52;;
67941;SDS011;54731;42.600;23.476;2023-02-28T10:51:12;33.22;;;12.95;;
67941;SDS011;54731;42.600;23.476;2023-02-28T10:55:53;31.92;;;13.73;;
67941;SDS011;54731;42.600;23.476;2023-02-28T10:58:42;27.17;;;13.60;;
67941;SDS011;54731;42.600;23.476;2023-02-28T11:03:41;104.97;;;47.03;;
67941;SDS011;54731;42.600;23.476;2023-02-28T11:06:07;153.57;;;55.30;;
67941;SDS011;54731;42.600;23.476;2023-02-28T11:08:47;51.50;;;21.67;;
67941;SDS011;54731;42.600;23.476;2023-02-28T11:11:14;65.38;;;31.83;;
67941;SDS011;54731;42.600;23.476;2023-02-28T11:13:41;440.80;;;152.80;;
67941;SDS011;54731;42.600;23.476;2023-02-28T11:16:10;231.63;;;83.57;;
67941;SDS011;54731;42.600;23.476;2023-02-28T11:18:50;39.38;;;18.83;;
67941;SDS011;54731;42.600;23.476;2023-02-28T11:21:29;69.60;;;43.85;;
67941;SDS011;54731;42.600;23.476;2023-02-28T11:26:38;62.65;;;28.75;;
67941;SDS011;54731;42.600;23.476;2023-02-28T11:32:05;46.17;;;20.95;;
67941;SDS011;54731;42.600;23.476;2023-02-28T11:34:37;28.65;;;16.10;;
67941;SDS011;54731;42.600;23.476;2023-02-28T11:37:05;23.43;;;12.97;;
67941;SDS011;54731;42.600;23.476;2023-02-28T11:39:34;39.15;;;18.92;;
67941;SDS011;54731;42.600;23.476;2023-02-28T11:47:37;24.92;;;12.75;;
67941;SDS011;54731;42.600;23.476;2023-02-28T11:50:22;20.73;;;10.17;;
67941;SDS011;54731;42.600;23.476;2023-02-28T12:04:01;32.27;;;15.40;;
67941;SDS011;54731;42.600;23.476;2023-02-28T12:27:47;21.23;;;9.95;;
67941;SDS011;54731;42.600;23.476;2023-02-28T12:30:19;23.83;;;11.30;;
67941;SDS011;54731;42.600;23.476;2023-02-28T12:32:56;27.05;;;9.90;;
67941;SDS011;54731;42.600;23.476;2023-02-28T12:35:34;29.20;;;11.95;;
67941;SDS011;54731;42.600;23.476;2023-02-28T12:38:06;26.38;;;12.18;;
67941;SDS011;54731;42.600;23.476;2023-02-28T12:43:10;23.27;;;10.17;;
67941;SDS011;54731;42.600;23.476;2023-02-28T12:48:14;19.52;;;10.43;;
67941;SDS011;54731;42.600;23.476;2023-02-28T12:50:43;23.35;;;11.65;;
67941;SDS011;54731;42.600;23.476;2023-02-28T12:53:17;24.97;;;9.67;;
67941;SDS011;54731;42.600;23.476;2023-02-28T12:59:01;19.45;;;9.40;;
67941;SDS011;54731;42.600;23.476;2023-02-28T13:10:03;41.28;;;18.40;;
67941;SDS011;54731;42.600;23.476;2023-02-28T13:12:30;63.38;;;26.05;;
67941;SDS011;54731;42.600;23.476;2023-02-28T13:17:54;34.88;;;16.95;;
67941;SDS011;54731;42.600;23.476;2023-02-28T13:20:25;27.00;;;11.88;;
67941;SDS011;54731;42.600;23.476;2023-02-28T13:22:52;33.15;;;14.60;;
67941;SDS011;54731;42.600;23.476;2023-02-28T13:27:48;101.53;;;46.30;;
67941;SDS011;54731;42.600;23.476;2023-02-28T13:33:31;30.25;;;14.00;;
67941;SDS011;54731;42.600;23.476;2023-02-28T13:38:39;175.02;;;68.85;;
67941;SDS011;54731;42.600;23.476;2023-02-28T13:44:16;26.67;;;11.13;;
67941;SDS011;54731;42.600;23.476;2023-02-28T13:49:32;53.08;;;26.40;;
67941;SDS011;54731;42.600;23.476;2023-02-28T14:00:02;30.33;;;14.75;;
67941;SDS011;54731;42.600;23.476;2023-02-28T14:05:18;70.13;;;32.95;;
67941;SDS011;54731;42.600;23.476;2023-02-28T14:07:46;58.35;;;26.83;;
67941;SDS011;54731;42.600;23.476;2023-02-28T14:10:31;39.25;;;18.25;;
67941;SDS011;54731;42.600;23.476;2023-02-28T14:15:38;33.80;;;17.23;;
67941;SDS011;54731;42.600;23.476;2023-02-28T14:18:17;26.88;;;10.75;;
67941;SDS011;54731;42.600;23.476;2023-02-28T14:21:01;32.00;;;14.60;;
67941;SDS011;54731;42.600;23.476;2023-02-28T14:26:43;32.33;;;15.52;;
67941;SDS011;54731;42.600;23.476;2023-02-28T14:37:23;24.23;;;12.27;;
67941;SDS011;54731;42.600;23.476;2023-02-28T14:39:53;28.33;;;14.00;;
67941;SDS011;54731;42.600;23.476;2023-02-28T14:42:29;29.92;;;14.55;;
67941;SDS011;54731;42.600;23.476;2023-02-28T14:44:57;24.92;;;10.52;;
67941;SDS011;54731;42.600;23.476;2023-02-28T14:47:23;23.77;;;9.97;;
67941;SDS011;54731;42.600;23.476;2023-02-28T14:49:52;24.52;;;9.60;;
67941;SDS011;54731;42.600;23.476;2023-02-28T14:52:24;25.27;;;11.63;;
67941;SDS011;54731;42.600;23.476;2023-02-28T14:54:53;16.25;;;9.48;;
67941;SDS011;54731;42.600;23.476;2023-02-28T14:57:25;19.70;;;9.70;;
67941;SDS011;54731;42.600;23.476;2023-02-28T15:00:07;57.90;;;24.13;;
67941;SDS011;54731;42.600;23.476;2023-02-28T15:02:37;68.73;;;30.77;;
67941;SDS011;54731;42.600;23.476;2023-02-28T15:07:34;98.93;;;44.78;;
67941;SDS011;54731;42.600;23.476;2023-02-28T15:10:19;211.20;;;82.97;;
67941;SDS011;54731;42.600;23.476;2023-02-28T15:13:29;536.65;;;217.18;;
67941;SDS011;54731;42.600;23.476;2023-02-28T15:18:07;543.80;;;206.93;;
67941;SDS011;54731;42.600;23.476;2023-02-28T15:20:48;519.97;;;187.23;;
67941;SDS011;54731;42.600;23.476;2023-02-28T15:23:14;260.08;;;83.53;;
67941;SDS011;54731;42.600;23.476;2023-02-28T15:25:41;326.65;;;99.40;;
67941;SDS011;54731;42.600;23.476;2023-02-28T15:28:09;51.38;;;18.55;;
67941;SDS011;54731;42.600;23.476;2023-02-28T15:30:49;29.57;;;11.57;;
67941;SDS011;54731;42.600;23.476;2023-02-28T15:33:27;34.58;;;11.82;;
67941;SDS011;54731;42.600;23.476;2023-02-28T15:36:06;85.97;;;25.45;;
67941;SDS011;54731;42.600;23.476;2023-02-28T15:38:43;126.60;;;36.30;;
67941;SDS011;54731;42.600;23.476;2023-02-28T15:41:28;95.53;;;26.53;;
67941;SDS011;54731;42.600;23.476;2023-02-28T15:46:43;231.60;;;76.55;;
67941;SDS011;54731;42.600;23.476;2023-02-28T15:49:19;65.28;;;25.45;;
67941;SDS011;54731;42.600;23.476;2023-02-28T15:51:46;80.35;;;28.98;;
67941;SDS011;54731;42.600;23.476;2023-02-28T15:54:17;24.90;;;11.97;;
67941;SDS011;54731;42.600;23.476;2023-02-28T15:56:55;18.00;;;8.57;;
67941;SDS011;54731;42.600;23.476;2023-02-28T15:59:29;15.52;;;8.63;;
67941;SDS011;54731;42.600;23.476;2023-02-28T16:02:13;43.70;;;22.30;;
67941;SDS011;54731;42.600;23.476;2023-02-28T16:04:59;34.85;;;15.48;;
67941;SDS011;54731;42.600;23.476;2023-02-28T16:07:45;32.10;;;13.27;;
67941;SDS011;54731;42.600;23.476;2023-02-28T16:10:11;26.97;;;12.73;;
67941;SDS011;54731;42.600;23.476;2023-02-28T16:12:38;29.63;;;14.20;;
67941;SDS011;54731;42.600;23.476;2023-02-28T16:15:23;26.90;;;12.32;;
67941;SDS011;54731;42.600;23.476;2023-02-28T16:17:50;32.17;;;15.98;;
67941;SDS011;54731;42.600;23.476;2023-02-28T16:20:18;31.17;;;16.00;;
67941;SDS011;54731;42.600;23.476;2023-02-28T16:22:48;25.55;;;12.98;;
67941;SDS011;54731;42.600;23.476;2023-02-28T16:25:14;22.13;;;10.47;;
67941;SDS011;54731;42.600;23.476;2023-02-28T16:27:40;23.23;;;11.77;;
67941;SDS011;54731;42.600;23.476;2023-02-28T16:30:07;32.50;;;17.17;;
67941;SDS011;54731;42.600;23.476;2023-02-28T16:32:41;26.70;;;15.23;;
67941;SDS011;54731;42.600;23.476;2023-02-28T16:35:09;27.60;;;14.00;;
67941;SDS011;54731;42.600;23.476;2023-02-28T16:37:35;38.75;;;17.50;;
67941;SDS011;54731;42.600;23.476;2023-02-28T16:40:00;28.65;;;13.25;;
67941;SDS011;54731;42.600;23.476;2023-02-28T16:42:27;28.03;;;11.57;;
67941;SDS011;54731;42.600;23.476;2023-02-28T16:44:53;41.80;;;16.45;;
67941;SDS011;54731;42.600;23.476;2023-02-28T16:47:20;42.17;;;16.27;;
67941;SDS011;54731;42.600;23.476;2023-02-28T16:49:46;44.63;;;17.92;;
67941;SDS011;54731;42.600;23.476;2023-02-28T16:52:11;25.83;;;10.83;;
67941;SDS011;54731;42.600;23.476;2023-02-28T16:54:37;28.93;;;14.43;;
67941;SDS011;54731;42.600;23.476;2023-02-28T16:57:02;26.40;;;11.60;;
67941;SDS011;54731;42.600;23.476;2023-02-28T16:59:29;35.42;;;16.58;;
67941;SDS011;54731;42.600;23.476;2023-02-28T17:01:54;24.13;;;11.27;;
67941;SDS011;54731;42.600;23.476;2023-02-28T17:04:20;23.48;;;11.18;;
67941;SDS011;54731;42.600;23.476;2023-02-28T17:06:46;16.27;;;9.23;;
67941;SDS011;54731;42.600;23.476;2023-02-28T17:09:18;12.03;;;6.57;;
67941;SDS011;54731;42.600;23.476;2023-02-28T17:11:45;20.85;;;11.63;;